sensor_id;sensor_type;location;lat;lon;timestamp;noise_LAeq;noise_LA_min;noise_LA_max;noise_LA01;noise_LA95
66463;Laerm;56827;52.178;4.500;2023-09-07T00:00:02;32.53;31.11;34.42;;
66463;Laerm;56827;52.178;4.500;2023-09-07T00:00:15;32.83;31.13;35.33;;
66463;Laerm;56827;52.178;4.500;2023-09-07T00:00:26;32.69;30.56;37.29;;
66463;Laerm;56827;52.178;4.500;2023-09-07T00:00:36;32.73;30.80;37.95;;
66463;Laerm;56827;52.178;4.500;2023-09-07T00:00:47;32.58;31.00;36.36;;
66463;Laerm;56827;52.178;4.500;2023-09-07T00:01:00;32.44;30.84;35.52;;
66463;Laerm;56827;52.178;4.500;2023-09-07T00:01:11;32.09;30.30;34.19;;
66463;Laerm;56827;52.178;4.500;2023-09-07T00:01:21;31.83;30.52;34.00;;
66463;Laerm;56827;52.178;4.500;2023-09-07T00:01:31;32.36;30.97;34.19;;
66463;Laerm;56827;52.178;4.500;2023-09-07T00:01:41;32.91;31.26;34.96;;
66463;Laerm;56827;52.178;4.500;2023-09-07T00:01:52;33.63;31.43;36.36;;
66463;Laerm;56827;52.178;4.500;2023-09-07T00:02:02;34.59;30.79;41.94;;
66463;Laerm;56827;52.178;4.500;2023-09-07T00:02:14;37.94;34.02;40.68;;
66463;Laerm;56827;52.178;4.500;2023-09-07T00:02:24;48.44;39.63;55.13;;
66463;Laerm;56827;52.178;4.500;2023-09-07T00:02:34;56.93;50.76;61.50;;
66463;Laerm;56827;52.178;4.500;2023-09-07T00:02:45;59.78;55.89;63.22;;
66463;Laerm;56827;52.178;4.500;2023-09-07T00:02:55;54.35;49.52;58.45;;
66463;Laerm;56827;52.178;4.500;2023-09-07T00:03:06;47.57;42.60;52.82;;
66463;Laerm;56827;52.178;4.500;2023-09-07T00:03:16;42.06;38.72;45.25;;
66463;Laerm;56827;52.178;4.500;2023-09-07T00:03:26;41.26;36.85;43.75;;
66463;Laerm;56827;52.178;4.500;2023-09-07T00:03:36;38.29;34.93;40.59;;
66463;Laerm;56827;52.178;4.500;2023-09-07T00:03:50;41.44;34.87;64.93;;
66463;Laerm;56827;52.178;4.500;2023-09-07T00:04:01;35.84;32.62;38.94;;
66463;Laerm;56827;52.178;4.500;2023-09-07T00:04:13;33.75;31.86;35.53;;
66463;Laerm;56827;52.178;4.500;2023-09-07T00:04:23;35.31;31.13;44.12;;
66463;Laerm;56827;52.178;4.500;2023-09-07T00:04:33;35.96;32.54;39.69;;
66463;Laerm;56827;52.178;4.500;2023-09-07T00:04:44;35.20;31.99;41.93;;
66463;Laerm;56827;52.178;4.500;2023-09-07T00:04:54;32.84;30.98;39.43;;
66463;Laerm;56827;52.178;4.500;2023-09-07T00:05:05;42.47;32.89;49.52;;
66463;Laerm;56827;52.178;4.500;2023-09-07T00:05:16;38.24;31.75;45.49;;
66463;Laerm;56827;52.178;4.500;2023-09-07T00:05:26;39.96;31.34;46.02;;
66463;Laerm;56827;52.178;4.500;2023-09-07T00:05:36;41.72;32.42;50.90;;
66463;Laerm;56827;52.178;4.500;2023-09-07T00:05:47;32.62;30.55;39.90;;
66463;Laerm;56827;52.178;4.500;2023-09-07T00:05:57;39.82;30.57;52.09;;
66463;Laerm;56827;52.178;4.500;2023-09-07T00:06:07;40.08;33.58;48.96;;
66463;Laerm;56827;52.178;4.500;2023-09-07T00:06:18;38.18;33.36;43.32;;
66463;Laerm;56827;52.178;4.500;2023-09-07T00:06:28;34.11;32.02;37.19;;
66463;Laerm;56827;52.178;4.500;2023-09-07T00:06:40;33.40;31.76;35.85;;
66463;Laerm;56827;52.178;4.500;2023-09-07T00:06:51;35.84;30.91;46.98;;
66463;Laerm;56827;52.178;4.500;2023-09-07T00:07:01;35.18;32.01;41.38;;
66463;Laerm;56827;52.178;4.500;2023-09-07T00:07:12;32.97;30.84;35.42;;
66463;Laerm;56827;52.178;4.500;2023-09-07T00:07:22;33.97;31.26;37.02;;
66463;Laerm;56827;52.178;4.500;2023-09-07T00:07:32;33.73;30.91;37.84;;
66463;Laerm;56827;52.178;4.500;2023-09-07T00:07:43;32.67;30.77;36.09;;
66463;Laerm;56827;52.178;4.500;2023-09-07T00:07:54;33.54;30.56;39.45;;
66463;Laerm;56827;52.178;4.500;2023-09-07T00:08:09;32.74;30.52;34.87;;
66463;Laerm;56827;52.178;4.500;2023-09-07T00:08:20;31.83;30.23;35.76;;
66463;Laerm;56827;52.178;4.500;2023-09-07T00:08:30;31.61;29.95;34.37;;
66463;Laerm;56827;52.178;4.500;2023-09-07T00:08:43;31.52;29.97;34.39;;
66463;Laerm;56827;52.178;4.500;2023-09-07T00:08:53;32.60;29.86;36.83;;
66463;Laerm;56827;52.178;4.500;2023-09-07T00:09:04;33.50;31.57;37.76;;
66463;Laerm;56827;52.178;4.500;2023-09-07T00:09:16;32.21;30.38;34.72;;
66463;Laerm;56827;52.178;4.500;2023-09-07T00:09:28;32.07;30.49;36.57;;
66463;Laerm;56827;52.178;4.500;2023-09-07T00:09:38;31.69;30.35;34.00;;
66463;Laerm;56827;52.178;4.500;2023-09-07T00:09:48;31.00;29.82;32.81;;
66463;Laerm;56827;52.178;4.500;2023-09-07T00:09:59;31.04;29.34;34.13;;
66463;Laerm;56827;52.178;4.500;2023-09-07T00:10:09;31.50;30.27;33.77;;
66463;Laerm;56827;52.178;4.500;2023-09-07T00:10:20;31.22;29.75;32.92;;
66463;Laerm;56827;52.178;4.500;2023-09-07T00:10:33;31.30;30.01;32.79;;
66463;Laerm;56827;52.178;4.500;2023-09-07T00:10:46;31.84;30.05;36.60;;
66463;Laerm;56827;52.178;4.500;2023-09-07T00:11:02;31.76;30.18;33.99;;
66463;Laerm;56827;52.178;4.500;2023-09-07T00:11:12;32.20;30.36;40.84;;
66463;Laerm;56827;52.178;4.500;2023-09-07T00:11:22;41.51;31.80;51.68;;
66463;Laerm;56827;52.178;4.500;2023-09-07T00:11:36;35.35;31.29;46.33;;
66463;Laerm;56827;52.178;4.500;2023-09-07T00:11:46;32.32;30.53;33.93;;
66463;Laerm;56827;52.178;4.500;2023-09-07T00:11:56;32.17;30.48;34.70;;
66463;Laerm;56827;52.178;4.500;2023-09-07T00:12:06;32.27;30.79;34.67;;
66463;Laerm;56827;52.178;4.500;2023-09-07T00:12:17;32.62;30.42;35.12;;
66463;Laerm;56827;52.178;4.500;2023-09-07T00:12:27;32.70;31.12;35.75;;
66463;Laerm;56827;52.178;4.500;2023-09-07T00:12:37;34.79;30.67;44.07;;
66463;Laerm;56827;52.178;4.500;2023-09-07T00:12:49;32.46;30.02;36.41;;
66463;Laerm;56827;52.178;4.500;2023-09-07T00:12:59;31.58;29.88;33.20;;
66463;Laerm;56827;52.178;4.500;2023-09-07T00:13:09;34.52;30.48;42.03;;
66463;Laerm;56827;52.178;4.500;2023-09-07T00:13:20;31.99;30.35;39.63;;
66463;Laerm;56827;52.178;4.500;2023-09-07T00:13:30;32.00;30.20;41.97;;
66463;Laerm;56827;52.178;4.500;2023-09-07T00:13:40;31.43;29.98;36.50;;
66463;Laerm;56827;52.178;4.500;2023-09-07T00:13:51;31.43;29.82;32.73;;
66463;Laerm;56827;52.178;4.500;2023-09-07T00:14:01;31.42;29.52;32.91;;
66463;Laerm;56827;52.178;4.500;2023-09-07T00:14:11;32.00;30.10;42.68;;
66463;Laerm;56827;52.178;4.500;2023-09-07T00:14:22;32.48;29.89;42.01;;
66463;Laerm;56827;52.178;4.500;2023-09-07T00:14:32;31.63;30.53;33.91;;
66463;Laerm;56827;52.178;4.500;2023-09-07T00:14:42;32.81;30.21;39.44;;
66463;Laerm;56827;52.178;4.500;2023-09-07T00:14:53;32.07;29.83;36.98;;
66463;Laerm;56827;52.178;4.500;2023-09-07T00:15:04;31.80;30.17;34.44;;
66463;Laerm;56827;52.178;4.500;2023-09-07T00:15:16;31.92;30.58;33.43;;
66463;Laerm;56827;52.178;4.500;2023-09-07T00:15:29;32.05;30.50;34.03;;
66463;Laerm;56827;52.178;4.500;2023-09-07T00:15:39;33.00;30.97;34.98;;
66463;Laerm;56827;52.178;4.500;2023-09-07T00:15:49;32.33;30.46;34.68;;
66463;Laerm;56827;52.178;4.500;2023-09-07T00:16:00;32.99;30.87;35.30;;
66463;Laerm;56827;52.178;4.500;2023-09-07T00:16:11;32.47;30.70;34.60;;
66463;Laerm;56827;52.178;4.500;2023-09-07T00:16:21;32.18;30.57;33.67;;
66463;Laerm;56827;52.178;4.500;2023-09-07T00:16:31;31.88;30.26;33.64;;
66463;Laerm;56827;52.178;4.500;2023-09-07T00:16:45;31.85;29.88;39.51;;
66463;Laerm;56827;52.178;4.500;2023-09-07T00:16:55;31.56;30.25;32.78;;
66463;Laerm;56827;52.178;4.500;2023-09-07T00:17:07;31.69;30.33;36.47;;
66463;Laerm;56827;52.178;4.500;2023-09-07T00:17:17;31.64;30.14;37.67;;
66463;Laerm;56827;52.178;4.500;2023-09-07T00:17:27;31.56;30.13;32.89;;
66463;Laerm;56827;52.178;4.500;2023-09-07T00:17:38;32.10;30.14;34.68;;
66463;Laerm;56827;52.178;4.500;2023-09-07T00:17:48;31.80;30.13;35.28;;
66463;Laerm;56827;52.178;4.500;2023-09-07T00:17:59;31.16;29.72;32.53;;
66463;Laerm;56827;52.178;4.500;2023-09-07T00:18:10;32.95;30.22;37.78;;
66463;Laerm;56827;52.178;4.500;2023-09-07T00:18:20;32.81;30.84;36.40;;
66463;Laerm;56827;52.178;4.500;2023-09-07T00:18:31;33.20;30.61;36.49;;
66463;Laerm;56827;52.178;4.500;2023-09-07T00:18:41;31.80;30.23;33.93;;
66463;Laerm;56827;52.178;4.500;2023-09-07T00:18:51;31.25;30.12;32.79;;
66463;Laerm;56827;52.178;4.500;2023-09-07T00:19:02;31.48;29.90;32.93;;
66463;Laerm;56827;52.178;4.500;2023-09-07T00:19:18;32.12;30.38;39.42;;
66463;Laerm;56827;52.178;4.500;2023-09-07T00:19:28;31.69;30.37;33.18;;
66463;Laerm;56827;52.178;4.500;2023-09-07T00:19:41;32.81;30.25;42.31;;
66463;Laerm;56827;52.178;4.500;2023-09-07T00:19:52;52.69;33.08;60.42;;
66463;Laerm;56827;52.178;4.500;2023-09-07T00:20:03;47.80;35.27;56.86;;
66463;Laerm;56827;52.178;4.500;2023-09-07T00:20:24;32.78;30.30;37.59;;
66463;Laerm;56827;52.178;4.500;2023-09-07T00:20:35;31.34;29.57;37.42;;
66463;Laerm;56827;52.178;4.500;2023-09-07T00:20:45;31.35;29.78;36.43;;
66463;Laerm;56827;52.178;4.500;2023-09-07T00:20:55;31.45;29.92;32.61;;
66463;Laerm;56827;52.178;4.500;2023-09-07T00:21:05;31.37;29.83;32.90;;
66463;Laerm;56827;52.178;4.500;2023-09-07T00:21:16;31.59;30.22;33.85;;
66463;Laerm;56827;52.178;4.500;2023-09-07T00:21:26;31.53;29.94;33.16;;
66463;Laerm;56827;52.178;4.500;2023-09-07T00:21:37;31.26;29.93;35.20;;
66463;Laerm;56827;52.178;4.500;2023-09-07T00:21:47;31.44;30.10;41.14;;
66463;Laerm;56827;52.178;4.500;2023-09-07T00:21:57;31.42;29.64;38.22;;
66463;Laerm;56827;52.178;4.500;2023-09-07T00:22:08;31.83;29.74;37.25;;
66463;Laerm;56827;52.178;4.500;2023-09-07T00:22:19;37.84;29.53;47.84;;
66463;Laerm;56827;52.178;4.500;2023-09-07T00:22:29;32.07;30.31;35.61;;
66463;Laerm;56827;52.178;4.500;2023-09-07T00:22:41;31.75;30.46;34.52;;
66463;Laerm;56827;52.178;4.500;2023-09-07T00:22:51;33.13;30.86;37.80;;
66463;Laerm;56827;52.178;4.500;2023-09-07T00:23:01;32.93;30.85;35.68;;
66463;Laerm;56827;52.178;4.500;2023-09-07T00:23:13;32.87;30.29;41.91;;
66463;Laerm;56827;52.178;4.500;2023-09-07T00:23:23;32.05;30.31;34.10;;
66463;Laerm;56827;52.178;4.500;2023-09-07T00:23:33;31.83;30.09;34.33;;
66463;Laerm;56827;52.178;4.500;2023-09-07T00:23:43;35.33;31.00;41.51;;
66463;Laerm;56827;52.178;4.500;2023-09-07T00:23:53;32.98;31.28;34.87;;
66463;Laerm;56827;52.178;4.500;2023-09-07T00:24:05;33.60;31.55;36.88;;
66463;Laerm;56827;52.178;4.500;2023-09-07T00:24:15;32.68;30.69;34.93;;
66463;Laerm;56827;52.178;4.500;2023-09-07T00:24:26;34.20;30.80;41.59;;
66463;Laerm;56827;52.178;4.500;2023-09-07T00:24:36;32.46;30.68;35.95;;
66463;Laerm;56827;52.178;4.500;2023-09-07T00:24:46;33.19;30.86;37.29;;
66463;Laerm;56827;52.178;4.500;2023-09-07T00:24:57;33.38;31.33;35.34;;
66463;Laerm;56827;52.178;4.500;2023-09-07T00:25:07;33.81;31.66;36.90;;
66463;Laerm;56827;52.178;4.500;2023-09-07T00:25:18;32.52;30.70;35.42;;
66463;Laerm;56827;52.178;4.500;2023-09-07T00:25:30;32.05;29.75;36.49;;
66463;Laerm;56827;52.178;4.500;2023-09-07T00:25:40;32.20;30.27;38.12;;
66463;Laerm;56827;52.178;4.500;2023-09-07T00:25:51;31.41;30.09;33.16;;
66463;Laerm;56827;52.178;4.500;2023-09-07T00:26:01;31.42;30.12;37.00;;
66463;Laerm;56827;52.178;4.500;2023-09-07T00:26:11;31.48;30.17;37.03;;
66463;Laerm;56827;52.178;4.500;2023-09-07T00:26:22;31.62;30.48;32.81;;
66463;Laerm;56827;52.178;4.500;2023-09-07T00:26:32;31.61;30.38;32.93;;
66463;Laerm;56827;52.178;4.500;2023-09-07T00:26:43;31.69;30.45;34.09;;
66463;Laerm;56827;52.178;4.500;2023-09-07T00:26:53;31.94;30.51;33.70;;
66463;Laerm;56827;52.178;4.500;2023-09-07T00:27:03;31.76;30.12;35.67;;
66463;Laerm;56827;52.178;4.500;2023-09-07T00:27:15;32.25;30.43;37.99;;
66463;Laerm;56827;52.178;4.500;2023-09-07T00:27:26;31.73;30.35;33.90;;
66463;Laerm;56827;52.178;4.500;2023-09-07T00:27:36;32.22;30.28;40.32;;
66463;Laerm;56827;52.178;4.500;2023-09-07T00:27:46;31.62;29.79;38.41;;
66463;Laerm;56827;52.178;4.500;2023-09-07T00:27:57;31.78;30.02;36.77;;
66463;Laerm;56827;52.178;4.500;2023-09-07T00:28:07;31.84;30.29;33.56;;
66463;Laerm;56827;52.178;4.500;2023-09-07T00:28:17;31.13;30.05;32.72;;
66463;Laerm;56827;52.178;4.500;2023-09-07T00:28:27;31.52;30.30;32.82;;
66463;Laerm;56827;52.178;4.500;2023-09-07T00:28:38;31.51;30.00;33.33;;
66463;Laerm;56827;52.178;4.500;2023-09-07T00:28:48;31.40;29.92;34.78;;
66463;Laerm;56827;52.178;4.500;2023-09-07T00:28:58;31.75;29.68;41.42;;
66463;Laerm;56827;52.178;4.500;2023-09-07T00:29:09;31.21;29.95;32.55;;
66463;Laerm;56827;52.178;4.500;2023-09-07T00:29:19;31.18;29.98;32.57;;
66463;Laerm;56827;52.178;4.500;2023-09-07T00:29:29;31.46;29.99;33.03;;
66463;Laerm;56827;52.178;4.500;2023-09-07T00:29:39;31.49;30.31;36.50;;
66463;Laerm;56827;52.178;4.500;2023-09-07T00:29:50;31.83;30.21;37.24;;
66463;Laerm;56827;52.178;4.500;2023-09-07T00:30:00;31.71;30.27;34.17;;
66463;Laerm;56827;52.178;4.500;2023-09-07T00:30:10;31.74;30.25;33.53;;
66463;Laerm;56827;52.178;4.500;2023-09-07T00:30:21;31.99;30.51;35.72;;
66463;Laerm;56827;52.178;4.500;2023-09-07T00:30:31;32.43;30.31;39.91;;
66463;Laerm;56827;52.178;4.500;2023-09-07T00:30:42;32.87;30.26;41.80;;
66463;Laerm;56827;52.178;4.500;2023-09-07T00:30:52;37.22;29.82;50.46;;
66463;Laerm;56827;52.178;4.500;2023-09-07T00:31:02;36.72;29.78;47.23;;
66463;Laerm;56827;52.178;4.500;2023-09-07T00:31:13;31.49;29.67;37.44;;
66463;Laerm;56827;52.178;4.500;2023-09-07T00:31:24;31.26;29.65;33.45;;
66463;Laerm;56827;52.178;4.500;2023-09-07T00:31:34;31.57;30.09;35.64;;
66463;Laerm;56827;52.178;4.500;2023-09-07T00:31:44;31.37;29.84;33.02;;
66463;Laerm;56827;52.178;4.500;2023-09-07T00:31:55;31.55;30.33;33.04;;
66463;Laerm;56827;52.178;4.500;2023-09-07T00:32:05;32.55;30.50;35.79;;
66463;Laerm;56827;52.178;4.500;2023-09-07T00:32:15;32.57;30.41;35.36;;
66463;Laerm;56827;52.178;4.500;2023-09-07T00:32:25;32.18;30.64;33.87;;
66463;Laerm;56827;52.178;4.500;2023-09-07T00:32:36;31.59;30.28;32.86;;
66463;Laerm;56827;52.178;4.500;2023-09-07T00:32:47;32.54;30.63;36.70;;
66463;Laerm;56827;52.178;4.500;2023-09-07T00:32:58;31.85;29.76;39.48;;
66463;Laerm;56827;52.178;4.500;2023-09-07T00:33:08;31.78;30.71;33.54;;
66463;Laerm;56827;52.178;4.500;2023-09-07T00:33:18;33.87;31.26;39.72;;
66463;Laerm;56827;52.178;4.500;2023-09-07T00:33:28;32.24;29.85;34.78;;
66463;Laerm;56827;52.178;4.500;2023-09-07T00:33:39;31.85;30.25;34.54;;
66463;Laerm;56827;52.178;4.500;2023-09-07T00:33:49;33.27;30.96;41.67;;
66463;Laerm;56827;52.178;4.500;2023-09-07T00:33:59;32.06;30.84;34.20;;
66463;Laerm;56827;52.178;4.500;2023-09-07T00:34:09;33.15;30.66;37.99;;
66463;Laerm;56827;52.178;4.500;2023-09-07T00:34:20;32.16;30.17;35.58;;
66463;Laerm;56827;52.178;4.500;2023-09-07T00:34:30;31.85;30.49;34.06;;
66463;Laerm;56827;52.178;4.500;2023-09-07T00:34:40;31.11;29.86;32.59;;
66463;Laerm;56827;52.178;4.500;2023-09-07T00:34:50;31.64;30.01;34.59;;
66463;Laerm;56827;52.178;4.500;2023-09-07T00:35:00;31.40;29.89;33.15;;
66463;Laerm;56827;52.178;4.500;2023-09-07T00:35:11;31.76;29.91;37.68;;
66463;Laerm;56827;52.178;4.500;2023-09-07T00:35:21;32.29;30.68;36.97;;
66463;Laerm;56827;52.178;4.500;2023-09-07T00:35:31;32.15;30.53;34.73;;
66463;Laerm;56827;52.178;4.500;2023-09-07T00:35:42;31.98;30.39;36.66;;
66463;Laerm;56827;52.178;4.500;2023-09-07T00:35:52;31.42;30.13;33.16;;
66463;Laerm;56827;52.178;4.500;2023-09-07T00:36:02;31.45;30.24;33.96;;
66463;Laerm;56827;52.178;4.500;2023-09-07T00:36:13;31.74;29.91;33.31;;
66463;Laerm;56827;52.178;4.500;2023-09-07T00:36:23;32.08;30.37;35.94;;
66463;Laerm;56827;52.178;4.500;2023-09-07T00:36:33;31.93;30.51;38.21;;
66463;Laerm;56827;52.178;4.500;2023-09-07T00:36:43;31.83;30.59;33.01;;
66463;Laerm;56827;52.178;4.500;2023-09-07T00:36:54;32.25;30.75;34.09;;
66463;Laerm;56827;52.178;4.500;2023-09-07T00:37:04;31.93;30.09;33.89;;
66463;Laerm;56827;52.178;4.500;2023-09-07T00:37:14;32.41;30.59;35.64;;
66463;Laerm;56827;52.178;4.500;2023-09-07T00:37:24;32.48;30.59;40.56;;
66463;Laerm;56827;52.178;4.500;2023-09-07T00:37:35;32.25;30.37;36.69;;
66463;Laerm;56827;52.178;4.500;2023-09-07T00:37:45;31.70;30.32;33.71;;
66463;Laerm;56827;52.178;4.500;2023-09-07T00:37:55;31.52;29.85;33.02;;
66463;Laerm;56827;52.178;4.500;2023-09-07T00:38:05;33.04;29.91;50.78;;
66463;Laerm;56827;52.178;4.500;2023-09-07T00:38:16;31.26;29.79;32.61;;
66463;Laerm;56827;52.178;4.500;2023-09-07T00:38:26;31.66;29.91;40.84;;
66463;Laerm;56827;52.178;4.500;2023-09-07T00:38:36;31.22;30.13;32.68;;
66463;Laerm;56827;52.178;4.500;2023-09-07T00:38:46;31.23;29.51;32.61;;
66463;Laerm;56827;52.178;4.500;2023-09-07T00:38:57;31.43;29.82;37.26;;
66463;Laerm;56827;52.178;4.500;2023-09-07T00:39:07;31.11;29.81;32.65;;
66463;Laerm;56827;52.178;4.500;2023-09-07T00:39:18;31.40;29.40;32.89;;
66463;Laerm;56827;52.178;4.500;2023-09-07T00:39:28;31.24;29.81;33.41;;
66463;Laerm;56827;52.178;4.500;2023-09-07T00:39:38;31.62;29.94;39.83;;
66463;Laerm;56827;52.178;4.500;2023-09-07T00:39:49;31.49;29.41;40.33;;
66463;Laerm;56827;52.178;4.500;2023-09-07T00:39:59;31.20;29.85;32.50;;
66463;Laerm;56827;52.178;4.500;2023-09-07T00:40:09;31.26;29.81;33.17;;
66463;Laerm;56827;52.178;4.500;2023-09-07T00:40:20;31.96;30.46;37.82;;
66463;Laerm;56827;52.178;4.500;2023-09-07T00:40:30;32.00;30.49;36.38;;
66463;Laerm;56827;52.178;4.500;2023-09-07T00:40:43;31.85;30.23;40.34;;
66463;Laerm;56827;52.178;4.500;2023-09-07T00:40:55;31.71;30.06;35.91;;
66463;Laerm;56827;52.178;4.500;2023-09-07T00:41:05;31.73;30.07;39.32;;
66463;Laerm;56827;52.178;4.500;2023-09-07T00:41:15;31.99;30.17;34.03;;
66463;Laerm;56827;52.178;4.500;2023-09-07T00:41:25;31.87;30.24;39.18;;
66463;Laerm;56827;52.178;4.500;2023-09-07T00:41:36;31.88;30.19;42.57;;
66463;Laerm;56827;52.178;4.500;2023-09-07T00:41:46;31.91;30.31;33.94;;
66463;Laerm;56827;52.178;4.500;2023-09-07T00:41:56;31.95;29.91;33.39;;
66463;Laerm;56827;52.178;4.500;2023-09-07T00:42:06;32.49;30.90;34.88;;
66463;Laerm;56827;52.178;4.500;2023-09-07T00:42:16;33.11;31.12;34.90;;
66463;Laerm;56827;52.178;4.500;2023-09-07T00:42:27;32.82;31.07;39.69;;
66463;Laerm;56827;52.178;4.500;2023-09-07T00:42:37;32.32;30.74;38.92;;
66463;Laerm;56827;52.178;4.500;2023-09-07T00:42:47;32.14;30.63;39.15;;
66463;Laerm;56827;52.178;4.500;2023-09-07T00:42:58;31.40;29.91;32.63;;
66463;Laerm;56827;52.178;4.500;2023-09-07T00:43:08;32.32;30.91;33.84;;
66463;Laerm;56827;52.178;4.500;2023-09-07T00:43:19;31.91;30.21;34.02;;
66463;Laerm;56827;52.178;4.500;2023-09-07T00:43:29;32.40;30.92;35.11;;
66463;Laerm;56827;52.178;4.500;2023-09-07T00:43:40;31.81;30.08;35.32;;
66463;Laerm;56827;52.178;4.500;2023-09-07T00:43:51;31.56;29.91;34.82;;
66463;Laerm;56827;52.178;4.500;2023-09-07T00:44:01;31.37;30.18;32.56;;
66463;Laerm;56827;52.178;4.500;2023-09-07T00:44:11;31.41;29.75;34.65;;
66463;Laerm;56827;52.178;4.500;2023-09-07T00:44:21;31.82;30.33;35.93;;
66463;Laerm;56827;52.178;4.500;2023-09-07T00:44:32;31.60;30.22;34.40;;
66463;Laerm;56827;52.178;4.500;2023-09-07T00:44:42;31.90;30.47;33.27;;
66463;Laerm;56827;52.178;4.500;2023-09-07T00:44:53;31.79;30.58;33.78;;
66463;Laerm;56827;52.178;4.500;2023-09-07T00:45:03;31.67;30.23;33.84;;
66463;Laerm;56827;52.178;4.500;2023-09-07T00:45:13;32.52;30.84;35.67;;
66463;Laerm;56827;52.178;4.500;2023-09-07T00:45:24;32.41;30.74;35.70;;
66463;Laerm;56827;52.178;4.500;2023-09-07T00:45:34;33.63;30.83;42.44;;
66463;Laerm;56827;52.178;4.500;2023-09-07T00:45:44;32.46;30.67;36.19;;
66463;Laerm;56827;52.178;4.500;2023-09-07T00:45:55;32.41;30.17;39.33;;
66463;Laerm;56827;52.178;4.500;2023-09-07T00:46:05;31.70;30.02;33.85;;
66463;Laerm;56827;52.178;4.500;2023-09-07T00:46:15;31.75;30.39;33.28;;
66463;Laerm;56827;52.178;4.500;2023-09-07T00:46:26;31.90;30.30;34.40;;
66463;Laerm;56827;52.178;4.500;2023-09-07T00:46:36;32.03;30.61;33.84;;
66463;Laerm;56827;52.178;4.500;2023-09-07T00:46:47;31.42;29.96;33.05;;
66463;Laerm;56827;52.178;4.500;2023-09-07T00:46:57;31.39;29.91;32.74;;
66463;Laerm;56827;52.178;4.500;2023-09-07T00:47:07;31.58;29.71;39.75;;
66463;Laerm;56827;52.178;4.500;2023-09-07T00:47:18;31.40;30.00;33.05;;
66463;Laerm;56827;52.178;4.500;2023-09-07T00:47:28;31.44;29.89;32.97;;
66463;Laerm;56827;52.178;4.500;2023-09-07T00:47:39;31.79;30.37;33.68;;
66463;Laerm;56827;52.178;4.500;2023-09-07T00:47:50;31.33;29.98;33.75;;
66463;Laerm;56827;52.178;4.500;2023-09-07T00:48:00;31.46;29.68;32.87;;
66463;Laerm;56827;52.178;4.500;2023-09-07T00:48:11;31.86;30.32;34.03;;
66463;Laerm;56827;52.178;4.500;2023-09-07T00:48:22;31.53;30.14;33.01;;
66463;Laerm;56827;52.178;4.500;2023-09-07T00:48:33;31.54;29.93;33.25;;
66463;Laerm;56827;52.178;4.500;2023-09-07T00:48:43;31.48;29.74;32.99;;
66463;Laerm;56827;52.178;4.500;2023-09-07T00:48:54;31.48;30.17;36.37;;
66463;Laerm;56827;52.178;4.500;2023-09-07T00:49:05;31.52;30.22;33.65;;
66463;Laerm;56827;52.178;4.500;2023-09-07T00:49:16;31.43;30.05;33.09;;
66463;Laerm;56827;52.178;4.500;2023-09-07T00:49:26;31.47;29.85;32.61;;
66463;Laerm;56827;52.178;4.500;2023-09-07T00:49:36;31.68;30.20;33.14;;
66463;Laerm;56827;52.178;4.500;2023-09-07T00:49:47;32.41;30.05;34.29;;
66463;Laerm;56827;52.178;4.500;2023-09-07T00:49:57;32.79;30.75;37.51;;
66463;Laerm;56827;52.178;4.500;2023-09-07T00:50:08;32.20;30.61;39.02;;
66463;Laerm;56827;52.178;4.500;2023-09-07T00:50:18;31.96;30.53;34.23;;
66463;Laerm;56827;52.178;4.500;2023-09-07T00:50:29;31.89;30.26;34.25;;
66463;Laerm;56827;52.178;4.500;2023-09-07T00:50:40;31.78;30.34;33.67;;
66463;Laerm;56827;52.178;4.500;2023-09-07T00:50:50;31.41;30.15;32.42;;
66463;Laerm;56827;52.178;4.500;2023-09-07T00:51:00;31.63;30.31;33.41;;
66463;Laerm;56827;52.178;4.500;2023-09-07T00:51:11;31.75;30.18;33.58;;
66463;Laerm;56827;52.178;4.500;2023-09-07T00:51:21;31.29;30.12;33.37;;
66463;Laerm;56827;52.178;4.500;2023-09-07T00:51:31;31.70;30.34;34.39;;
66463;Laerm;56827;52.178;4.500;2023-09-07T00:51:42;31.48;29.99;33.31;;
66463;Laerm;56827;52.178;4.500;2023-09-07T00:51:52;38.93;30.27;48.97;;
66463;Laerm;56827;52.178;4.500;2023-09-07T00:52:02;35.66;30.36;46.65;;
66463;Laerm;56827;52.178;4.500;2023-09-07T00:52:13;32.43;30.19;34.53;;
66463;Laerm;56827;52.178;4.500;2023-09-07T00:52:23;31.65;29.84;33.20;;
66463;Laerm;56827;52.178;4.500;2023-09-07T00:52:34;31.48;30.21;33.31;;
66463;Laerm;56827;52.178;4.500;2023-09-07T00:52:44;31.88;30.32;33.76;;
66463;Laerm;56827;52.178;4.500;2023-09-07T00:52:57;33.12;30.43;36.95;;
66463;Laerm;56827;52.178;4.500;2023-09-07T00:53:07;31.89;30.47;33.93;;
66463;Laerm;56827;52.178;4.500;2023-09-07T00:53:18;31.65;29.96;33.56;;
66463;Laerm;56827;52.178;4.500;2023-09-07T00:53:28;31.68;30.11;34.43;;
66463;Laerm;56827;52.178;4.500;2023-09-07T00:53:38;32.18;30.62;34.54;;
66463;Laerm;56827;52.178;4.500;2023-09-07T00:53:50;31.44;29.90;37.31;;
66463;Laerm;56827;52.178;4.500;2023-09-07T00:54:00;31.46;29.84;33.93;;
66463;Laerm;56827;52.178;4.500;2023-09-07T00:54:10;31.40;29.86;34.29;;
66463;Laerm;56827;52.178;4.500;2023-09-07T00:54:21;31.64;29.75;36.91;;
66463;Laerm;56827;52.178;4.500;2023-09-07T00:54:31;31.81;30.13;42.68;;
66463;Laerm;56827;52.178;4.500;2023-09-07T00:54:41;31.92;30.18;34.05;;
66463;Laerm;56827;52.178;4.500;2023-09-07T00:54:52;31.86;30.06;36.90;;
66463;Laerm;56827;52.178;4.500;2023-09-07T00:55:02;31.44;30.04;34.17;;
66463;Laerm;56827;52.178;4.500;2023-09-07T00:55:14;31.61;29.72;40.25;;
66463;Laerm;56827;52.178;4.500;2023-09-07T00:55:25;31.97;30.44;34.31;;
66463;Laerm;56827;52.178;4.500;2023-09-07T00:55:35;31.47;29.59;36.27;;
66463;Laerm;56827;52.178;4.500;2023-09-07T00:55:46;31.28;29.88;34.00;;
66463;Laerm;56827;52.178;4.500;2023-09-07T00:55:56;31.28;29.93;32.59;;
66463;Laerm;56827;52.178;4.500;2023-09-07T00:56:07;31.20;29.60;32.66;;
66463;Laerm;56827;52.178;4.500;2023-09-07T00:56:17;31.66;29.80;34.91;;
66463;Laerm;56827;52.178;4.500;2023-09-07T00:56:28;32.28;30.45;36.61;;
66463;Laerm;56827;52.178;4.500;2023-09-07T00:56:38;31.83;29.91;36.98;;
66463;Laerm;56827;52.178;4.500;2023-09-07T00:56:49;32.36;30.36;37.31;;
66463;Laerm;56827;52.178;4.500;2023-09-07T00:57:00;31.56;30.18;33.25;;
66463;Laerm;56827;52.178;4.500;2023-09-07T00:57:10;31.57;29.67;33.56;;
66463;Laerm;56827;52.178;4.500;2023-09-07T00:57:20;31.95;30.12;35.40;;
66463;Laerm;56827;52.178;4.500;2023-09-07T00:57:31;32.29;30.34;39.73;;
66463;Laerm;56827;52.178;4.500;2023-09-07T00:57:41;31.57;29.92;33.19;;
66463;Laerm;56827;52.178;4.500;2023-09-07T00:57:52;31.56;30.37;32.95;;
66463;Laerm;56827;52.178;4.500;2023-09-07T00:58:03;32.77;30.62;36.46;;
66463;Laerm;56827;52.178;4.500;2023-09-07T00:58:14;31.78;30.37;34.26;;
66463;Laerm;56827;52.178;4.500;2023-09-07T00:58:24;31.43;30.20;32.93;;
66463;Laerm;56827;52.178;4.500;2023-09-07T00:58:35;31.46;29.92;33.00;;
66463;Laerm;56827;52.178;4.500;2023-09-07T00:58:46;31.66;30.53;33.23;;
66463;Laerm;56827;52.178;4.500;2023-09-07T00:58:56;32.35;30.39;38.28;;
66463;Laerm;56827;52.178;4.500;2023-09-07T00:59:09;32.00;30.32;34.88;;
66463;Laerm;56827;52.178;4.500;2023-09-07T00:59:21;32.80;31.06;35.14;;
66463;Laerm;56827;52.178;4.500;2023-09-07T00:59:32;31.51;30.04;32.91;;